createdAt,value
2024-02-06T00:00:10.801Z,5.53
2024-02-06T00:02:40.181Z,5.73
2024-02-06T00:05:11.002Z,5.73
2024-02-06T00:07:40.141Z,5.93
2024-02-06T00:10:08.447Z,5.73
2024-02-06T00:12:36.197Z,5.63
2024-02-06T00:15:03.885Z,5.63
2024-02-06T00:17:31.699Z,5.60
2024-02-06T00:20:01.801Z,5.37
2024-02-06T00:22:30.449Z,5.40
2024-02-06T00:24:58.174Z,5.73
2024-02-06T00:27:25.871Z,5.73
2024-02-06T00:29:55.891Z,5.10
2024-02-06T00:32:23.701Z,5.17
2024-02-06T00:34:51.795Z,4.97
2024-02-06T00:37:21.323Z,4.70
2024-02-06T00:39:49.137Z,4.90
2024-02-06T00:42:16.745Z,4.93
2024-02-06T00:44:44.372Z,5.60
2024-02-06T00:47:12.130Z,4.90
2024-02-06T00:49:40.006Z,5.07
2024-02-06T00:52:07.830Z,5.07
2024-02-06T00:54:36.997Z,4.90
2024-02-06T00:57:05.509Z,5.27
2024-02-06T00:59:33.109Z,4.40
2024-02-06T01:02:02.312Z,4.80
2024-02-06T01:04:30.379Z,4.80
2024-02-06T01:06:58.542Z,4.43
2024-02-06T01:09:26.412Z,4.60
2024-02-06T01:11:55.407Z,4.53
2024-02-06T01:14:23.154Z,4.40
2024-02-06T01:16:50.755Z,4.50
2024-02-06T01:19:18.565Z,4.00
2024-02-06T01:21:46.325Z,4.50
2024-02-06T01:24:14.522Z,4.30
2024-02-06T01:26:43.914Z,4.07
2024-02-06T01:29:13.220Z,4.00
2024-02-06T01:31:41.209Z,3.90
2024-02-06T01:34:10.205Z,4.27
2024-02-06T01:36:37.320Z,4.30
2024-02-06T01:39:05.440Z,4.23
2024-02-06T01:41:33.656Z,4.00
2024-02-06T01:44:01.511Z,4.20
2024-02-06T01:46:30.733Z,4.03
2024-02-06T01:48:58.699Z,4.43
2024-02-06T01:51:27.752Z,3.87
2024-02-06T01:53:56.582Z,3.40
2024-02-06T01:56:24.394Z,4.20
2024-02-06T01:58:54.188Z,3.57
2024-02-06T02:01:23.649Z,3.53
2024-02-06T02:03:54.766Z,3.90
2024-02-06T02:06:23.081Z,3.90
2024-02-06T02:08:52.419Z,3.93
2024-02-06T02:11:20.924Z,3.57
2024-02-06T02:13:48.596Z,3.93
2024-02-06T02:16:20.189Z,3.60
2024-02-06T02:18:48.209Z,3.57
2024-02-06T02:21:17.844Z,3.60
2024-02-06T02:23:47.156Z,3.50
2024-02-06T02:26:15.264Z,3.93
2024-02-06T02:28:43.533Z,3.80
2024-02-06T02:31:12.012Z,4.10
2024-02-06T02:33:40.234Z,3.93
2024-02-06T02:36:08.662Z,4.07
2024-02-06T02:38:38.338Z,3.90
2024-02-06T02:41:06.412Z,4.40
2024-02-06T02:43:34.458Z,4.00
2024-02-06T02:46:02.175Z,4.27
2024-02-06T02:48:29.836Z,3.80
2024-02-06T02:50:57.504Z,3.77
2024-02-06T02:53:25.122Z,3.87
2024-02-06T02:55:54.204Z,3.97
2024-02-06T02:58:21.905Z,3.97
2024-02-06T03:00:49.662Z,3.40
2024-02-06T03:03:17.625Z,3.80
2024-02-06T03:05:45.363Z,3.90
2024-02-06T03:08:12.985Z,4.00
2024-02-06T03:10:40.729Z,3.60
2024-02-06T03:13:10.243Z,3.93
2024-02-06T03:15:38.088Z,3.90
2024-02-06T03:18:05.930Z,4.60
2024-02-06T03:20:33.826Z,3.90
2024-02-06T03:23:01.508Z,3.80
2024-02-06T03:25:28.442Z,3.50
2024-02-06T03:27:56.981Z,3.87
2024-02-06T03:30:27.374Z,3.97
2024-02-06T03:32:55.901Z,3.53
2024-02-06T03:35:24.058Z,3.93
2024-02-06T03:37:51.903Z,3.77
2024-02-06T03:40:19.997Z,3.63
2024-02-06T03:42:48.021Z,3.53
2024-02-06T03:45:16.168Z,3.60
2024-02-06T03:47:45.519Z,4.40
2024-02-06T03:50:13.468Z,4.37
2024-02-06T03:52:41.522Z,3.77
2024-02-06T03:55:09.369Z,3.77
2024-02-06T03:57:37.017Z,3.90
2024-02-06T04:00:05.016Z,3.90
2024-02-06T04:02:32.747Z,3.63
2024-02-06T04:05:02.679Z,2.90
2024-02-06T04:07:30.524Z,3.90
2024-02-06T04:09:58.573Z,3.40
2024-02-06T04:12:26.273Z,3.77
2024-02-06T04:14:54.461Z,3.90
2024-02-06T04:17:22.092Z,3.80
2024-02-06T04:19:49.784Z,3.87
2024-02-06T04:22:18.858Z,3.23
2024-02-06T04:24:46.545Z,3.60
2024-02-06T04:27:14.173Z,3.83
2024-02-06T04:29:41.813Z,3.73
2024-02-06T04:32:09.504Z,4.07
2024-02-06T04:34:37.214Z,4.03
2024-02-06T04:37:05.212Z,3.73
2024-02-06T04:39:34.293Z,3.77
2024-02-06T04:42:01.890Z,3.40
2024-02-06T04:44:29.689Z,3.73
2024-02-06T04:46:58.768Z,4.03
2024-02-06T04:49:26.695Z,3.97
2024-02-06T04:51:54.618Z,3.70
2024-02-06T04:54:22.741Z,3.50
2024-02-06T04:56:51.777Z,3.30
2024-02-06T04:59:20.076Z,4.33
2024-02-06T05:01:48.318Z,5.37
2024-02-06T05:04:15.955Z,7.37
2024-02-06T05:06:43.780Z,9.27
2024-02-06T05:09:11.565Z,8.87
2024-02-06T05:11:39.231Z,8.00
2024-02-06T05:14:09.658Z,7.37
2024-02-06T05:16:37.770Z,6.40
2024-02-06T05:19:05.661Z,5.63
2024-02-06T05:21:33.582Z,4.93
2024-02-06T05:24:01.288Z,4.73
2024-02-06T05:26:29.075Z,4.23
2024-02-06T05:28:56.756Z,4.50
2024-02-06T05:31:25.919Z,4.03
2024-02-06T05:33:53.947Z,3.97
2024-02-06T05:36:21.729Z,4.20
2024-02-06T05:38:49.650Z,3.60
2024-02-06T05:41:18.583Z,4.23
2024-02-06T05:43:46.310Z,4.03
2024-02-06T05:46:13.976Z,4.17
2024-02-06T05:48:44.161Z,4.23
2024-02-06T05:51:12.608Z,4.60
2024-02-06T05:53:40.217Z,4.00
2024-02-06T05:56:09.376Z,4.70
2024-02-06T05:58:39.385Z,4.27
2024-02-06T06:01:07.247Z,4.77
2024-02-06T06:03:35.259Z,4.80
2024-02-06T06:06:04.547Z,4.60
2024-02-06T06:08:32.251Z,5.07
2024-02-06T06:10:59.958Z,5.50
2024-02-06T06:13:27.882Z,5.60
2024-02-06T06:15:55.954Z,5.80
2024-02-06T06:18:23.721Z,5.80
2024-02-06T06:20:51.518Z,6.27
2024-02-06T06:23:20.806Z,5.57
2024-02-06T06:25:48.473Z,5.47
2024-02-06T06:28:16.162Z,5.90
2024-02-06T06:30:43.790Z,5.83
2024-02-06T06:33:11.438Z,4.93
2024-02-06T06:35:39.119Z,5.43
2024-02-06T06:38:07.828Z,5.23
2024-02-06T06:40:36.971Z,5.27
2024-02-06T06:43:05.190Z,5.40
2024-02-06T06:45:32.927Z,5.30
2024-02-06T06:48:00.757Z,5.53
2024-02-06T06:50:28.518Z,5.37
2024-02-06T06:52:56.125Z,6.33
2024-02-06T06:55:23.884Z,5.80
2024-02-06T06:57:52.971Z,4.83
2024-02-06T07:00:21.815Z,5.53
2024-02-06T07:02:49.491Z,5.70
2024-02-06T07:05:22.380Z,5.93
2024-02-06T07:07:50.331Z,5.30
2024-02-06T07:10:18.129Z,6.60
2024-02-06T07:12:46.088Z,6.03
2024-02-06T07:15:15.506Z,6.57
2024-02-06T07:17:44.029Z,5.80
2024-02-06T07:20:12.501Z,6.07
2024-02-06T07:22:40.382Z,6.40
2024-02-06T07:25:08.509Z,6.50
2024-02-06T07:27:36.510Z,5.83
2024-02-06T07:30:05.256Z,6.00
2024-02-06T07:32:34.405Z,6.53
2024-02-06T07:35:02.679Z,6.97
2024-02-06T07:37:30.635Z,6.50
2024-02-06T07:39:58.743Z,5.50
2024-02-06T07:42:26.626Z,4.90
2024-02-06T07:44:54.309Z,5.70
2024-02-06T07:47:22.008Z,6.37
2024-02-06T07:49:51.433Z,5.80
2024-02-06T07:52:19.372Z,6.20
2024-02-06T07:54:47.049Z,5.97
2024-02-06T07:57:15.042Z,5.83
2024-02-06T07:59:42.736Z,5.90
2024-02-06T08:02:10.475Z,5.73
2024-02-06T08:04:38.745Z,5.57
2024-02-06T08:07:08.088Z,6.00
2024-02-06T08:09:36.123Z,6.30
2024-02-06T08:12:07.183Z,7.00
2024-02-06T08:14:36.297Z,6.47
2024-02-06T08:17:03.976Z,6.63
2024-02-06T08:19:33.403Z,7.27
2024-02-06T08:22:01.226Z,6.97
2024-02-06T08:24:30.378Z,5.93
2024-02-06T08:26:58.115Z,6.33
2024-02-06T08:29:26.213Z,6.47
2024-02-06T08:31:54.471Z,6.00
2024-02-06T08:34:22.959Z,5.50
2024-02-06T08:36:50.806Z,6.23
2024-02-06T08:39:18.584Z,5.67
2024-02-06T08:41:47.716Z,6.00
2024-02-06T08:44:15.778Z,6.53
2024-02-06T08:46:43.420Z,6.13
2024-02-06T08:49:11.183Z,6.33
2024-02-06T08:51:39.449Z,5.63
2024-02-06T08:54:07.402Z,5.83
2024-02-06T08:56:35.032Z,4.77
2024-02-06T08:59:04.953Z,4.93
2024-02-06T09:01:32.813Z,5.60
2024-02-06T09:04:04.405Z,5.40
2024-02-06T09:06:33.821Z,5.97
2024-02-06T09:09:01.635Z,5.97
2024-02-06T09:11:29.494Z,7.80
2024-02-06T09:13:57.254Z,7.73
2024-02-06T09:16:27.147Z,7.00
2024-02-06T09:18:55.995Z,6.30
2024-02-06T09:21:24.252Z,5.33
2024-02-06T09:23:52.112Z,5.80
2024-02-06T09:26:19.734Z,5.40
2024-02-06T09:28:48.438Z,6.10
2024-02-06T09:31:17.175Z,5.40
2024-02-06T09:33:46.370Z,5.83
2024-02-06T09:36:14.085Z,5.87
2024-02-06T09:38:41.942Z,6.50
2024-02-06T09:41:13.756Z,6.63
2024-02-06T09:43:42.211Z,6.40
2024-02-06T09:46:10.972Z,7.33
2024-02-06T09:48:38.727Z,6.70
2024-02-06T09:51:08.639Z,7.50
2024-02-06T09:53:37.986Z,7.00
2024-02-06T09:56:06.592Z,6.80
2024-02-06T09:58:34.432Z,6.80
2024-02-06T10:01:02.825Z,6.50
2024-02-06T10:03:31.394Z,7.63
2024-02-06T10:06:00.791Z,9.60
2024-02-06T10:08:30.075Z,9.40
2024-02-06T10:10:58.818Z,8.73
2024-02-06T10:13:26.852Z,7.80
2024-02-06T10:15:55.105Z,7.50
2024-02-06T10:18:23.253Z,6.80
2024-02-06T10:20:51.169Z,6.00
2024-02-06T10:23:19.545Z,5.07
2024-02-06T10:25:49.678Z,5.30
2024-02-06T10:28:21.275Z,5.87
2024-02-06T10:30:49.215Z,6.40
2024-02-06T10:33:17.669Z,6.80
2024-02-06T10:35:46.033Z,5.57
2024-02-06T10:38:14.111Z,6.03
2024-02-06T10:40:42.537Z,6.77
2024-02-06T10:43:40.103Z,5.80
2024-02-06T10:46:00.685Z,5.83
2024-02-06T10:48:29.078Z,5.43
2024-02-06T10:51:00.981Z,6.17
2024-02-06T10:53:29.640Z,6.10
2024-02-06T10:56:01.571Z,6.60
2024-02-06T10:58:39.680Z,7.13
2024-02-06T11:01:09.478Z,6.50
2024-02-06T11:03:39.743Z,7.00
2024-02-06T11:06:12.177Z,7.10
2024-02-06T11:08:40.924Z,6.80
2024-02-06T11:11:09.601Z,6.23
2024-02-06T11:13:45.104Z,6.90
2024-02-06T11:16:15.165Z,6.80
2024-02-06T11:18:45.267Z,6.40
2024-02-06T11:21:13.185Z,6.40
2024-02-06T11:23:41.268Z,6.20
2024-02-06T11:26:09.805Z,6.27
2024-02-06T11:28:39.194Z,6.00
2024-02-06T11:31:07.046Z,6.07
2024-02-06T11:33:38.639Z,6.07
2024-02-06T11:36:13.458Z,7.13
2024-02-06T11:38:41.410Z,5.90
2024-02-06T11:41:10.081Z,6.60
2024-02-06T11:43:39.354Z,6.50
2024-02-06T11:46:07.355Z,6.30
2024-02-06T11:48:35.855Z,6.50
2024-02-06T11:51:04.250Z,6.93
2024-02-06T11:53:32.804Z,7.20
2024-02-06T11:56:01.470Z,6.43
2024-02-06T11:58:29.473Z,7.57
2024-02-06T12:01:00.309Z,6.23
2024-02-06T12:03:28.508Z,6.27
2024-02-06T12:05:56.378Z,6.30
2024-02-06T12:08:26.671Z,6.47
2024-02-06T12:11:02.860Z,6.63
2024-02-06T12:13:33.788Z,6.17
2024-02-06T12:16:05.400Z,6.73
2024-02-06T12:18:33.633Z,6.97
2024-02-06T12:21:01.472Z,6.43
2024-02-06T12:23:29.292Z,5.83
2024-02-06T12:25:57.071Z,6.20
2024-02-06T12:28:24.903Z,5.67
2024-02-06T12:31:01.486Z,5.93
2024-02-06T12:33:36.850Z,7.63
2024-02-06T12:36:05.012Z,5.40
2024-02-06T12:38:32.681Z,5.77
2024-02-06T12:41:01.806Z,5.23
2024-02-06T12:43:29.737Z,5.27
2024-02-06T12:45:58.260Z,4.80
2024-02-06T12:48:26.214Z,5.17
2024-02-06T12:50:55.483Z,5.73
2024-02-06T12:53:23.787Z,5.03
2024-02-06T12:55:51.993Z,4.40
2024-02-06T12:58:19.830Z,4.80
2024-02-06T13:00:53.931Z,5.00
2024-02-06T13:03:22.098Z,5.10
2024-02-06T13:05:57.286Z,5.03
2024-02-06T13:08:26.581Z,4.33
2024-02-06T13:10:55.580Z,5.20
2024-02-06T13:13:25.057Z,4.57
2024-02-06T13:15:53.073Z,4.80
2024-02-06T13:18:21.406Z,4.70
2024-02-06T13:20:58.746Z,4.40
2024-02-06T13:23:26.424Z,3.77
2024-02-06T13:25:54.107Z,4.50
2024-02-06T13:28:21.873Z,3.87
2024-02-06T13:30:49.639Z,4.27
2024-02-06T13:33:18.190Z,3.90
2024-02-06T13:35:46.470Z,4.20
2024-02-06T13:38:15.567Z,4.37
2024-02-06T13:40:43.210Z,4.03
2024-02-06T13:43:10.882Z,4.03
2024-02-06T13:45:38.558Z,3.60
2024-02-06T13:48:06.648Z,3.90
2024-02-06T13:50:34.556Z,4.03
2024-02-06T13:53:03.419Z,3.60
2024-02-06T13:55:33.309Z,3.13
2024-02-06T13:58:01.130Z,3.97
2024-02-06T14:00:29.503Z,3.17
2024-02-06T14:02:57.359Z,3.20
2024-02-06T14:05:28.927Z,3.10
2024-02-06T14:07:57.687Z,3.50
2024-02-06T14:10:26.070Z,3.50
2024-02-06T14:12:55.194Z,3.17
2024-02-06T14:15:23.485Z,3.20
2024-02-06T14:17:51.384Z,3.13
2024-02-06T14:20:19.274Z,3.13
2024-02-06T14:22:47.627Z,3.20
2024-02-06T14:25:15.600Z,3.33
2024-02-06T14:27:43.265Z,3.43
2024-02-06T14:30:13.037Z,3.30
2024-02-06T14:32:42.762Z,3.80
2024-02-06T14:35:10.582Z,3.23
2024-02-06T14:37:38.330Z,2.87
2024-02-06T14:40:31.254Z,3.90
2024-02-06T14:42:59.446Z,3.30
2024-02-06T14:45:28.554Z,3.33
2024-02-06T14:47:56.182Z,2.93
2024-02-06T14:50:23.923Z,3.30
2024-02-06T14:52:51.569Z,2.90
2024-02-06T14:55:19.548Z,2.83
2024-02-06T14:57:47.419Z,2.70
2024-02-06T15:00:15.639Z,2.80
2024-02-06T15:02:44.830Z,3.23
2024-02-06T15:05:12.633Z,3.70
2024-02-06T15:07:41.791Z,3.40
2024-02-06T15:10:10.127Z,4.10
2024-02-06T15:12:37.892Z,3.87
2024-02-06T15:15:06.021Z,3.70
2024-02-06T15:17:33.758Z,3.60
2024-02-06T15:20:05.570Z,3.13
2024-02-06T15:22:33.493Z,3.30
2024-02-06T15:25:01.384Z,4.20
2024-02-06T15:27:29.072Z,3.90
2024-02-06T15:29:56.705Z,4.10
2024-02-06T15:32:24.532Z,3.80
2024-02-06T15:34:52.226Z,3.90
2024-02-06T15:37:21.526Z,4.43
2024-02-06T15:39:49.594Z,3.87
2024-02-06T15:42:17.561Z,4.20
2024-02-06T15:44:45.529Z,4.00
2024-02-06T15:47:13.359Z,3.90
2024-02-06T15:49:41.355Z,4.20
2024-02-06T15:52:09.101Z,4.43
2024-02-06T15:54:39.638Z,4.37
2024-02-06T15:57:08.276Z,4.37
2024-02-06T15:59:36.324Z,4.43
2024-02-06T16:02:04.156Z,4.93
2024-02-06T16:04:31.953Z,4.50
2024-02-06T16:06:59.930Z,4.30
2024-02-06T16:09:27.722Z,4.40
2024-02-06T16:11:56.896Z,4.10
2024-02-06T16:14:24.918Z,4.37
2024-02-06T16:16:52.582Z,10.83
2024-02-06T16:19:30.067Z,4.83
2024-02-06T16:22:01.324Z,8.30
2024-02-06T16:24:29.576Z,5.63
2024-02-06T16:26:59.944Z,4.73
2024-02-06T16:29:27.816Z,5.17
2024-02-06T16:31:55.411Z,4.87
2024-02-06T16:34:30.317Z,5.07
2024-02-06T16:37:05.754Z,4.77
2024-02-06T16:39:33.944Z,5.27
2024-02-06T16:42:03.229Z,6.33
2024-02-06T16:44:30.957Z,5.73
2024-02-06T16:46:58.708Z,5.90
2024-02-06T16:49:26.954Z,6.03
2024-02-06T16:51:54.843Z,5.10
2024-02-06T16:54:24.492Z,5.03
2024-02-06T16:56:53.300Z,5.43
2024-02-06T16:59:22.360Z,4.87
2024-02-06T17:01:50.338Z,4.40
2024-02-06T17:04:18.216Z,4.60
2024-02-06T17:06:46.901Z,4.40
2024-02-06T17:09:14.543Z,4.90
2024-02-06T17:11:44.947Z,3.77
2024-02-06T17:14:12.508Z,4.57
2024-02-06T17:16:44.216Z,4.27
2024-02-06T17:19:12.801Z,4.20
2024-02-06T17:21:40.469Z,4.03
2024-02-06T17:24:08.253Z,4.00
2024-02-06T17:26:35.925Z,3.60
2024-02-06T17:29:03.638Z,4.30
2024-02-06T17:31:31.263Z,4.17
2024-02-06T17:34:00.402Z,3.47
2024-02-06T17:36:30.322Z,4.00
2024-02-06T17:38:59.003Z,3.47
2024-02-06T17:41:26.636Z,4.37
2024-02-06T17:43:54.710Z,3.93
2024-02-06T17:46:22.406Z,4.10
2024-02-06T17:48:50.520Z,3.83
2024-02-06T17:51:19.688Z,4.40
2024-02-06T17:53:47.452Z,4.30
2024-02-06T17:56:15.166Z,4.63
2024-02-06T17:58:45.765Z,4.60
2024-02-06T18:01:15.828Z,4.70
2024-02-06T18:03:43.821Z,5.40
2024-02-06T18:06:11.825Z,4.50
2024-02-06T18:08:41.038Z,5.10
2024-02-06T18:11:08.922Z,4.40
2024-02-06T18:13:36.669Z,4.23
2024-02-06T18:16:04.516Z,4.60
2024-02-06T18:18:32.314Z,4.30
2024-02-06T18:21:00.489Z,4.80
2024-02-06T18:23:29.980Z,5.00
2024-02-06T18:25:59.506Z,4.77
2024-02-06T18:28:27.222Z,4.67
2024-02-06T18:30:54.993Z,4.60
2024-02-06T18:33:22.687Z,5.13
2024-02-06T18:35:50.347Z,5.40
2024-02-06T18:38:17.890Z,6.03
2024-02-06T18:40:44.541Z,6.90
2024-02-06T18:43:14.426Z,5.03
2024-02-06T18:45:42.288Z,4.90
2024-02-06T18:48:09.923Z,5.17
2024-02-06T18:50:38.678Z,4.83
2024-02-06T18:53:06.651Z,5.17
2024-02-06T18:55:34.542Z,5.10
2024-02-06T18:58:02.334Z,5.30
2024-02-06T19:00:31.488Z,5.67
2024-02-06T19:02:59.182Z,5.63
2024-02-06T19:05:27.044Z,4.77
2024-02-06T19:07:54.911Z,5.00
2024-02-06T19:10:22.534Z,4.70
2024-02-06T19:12:50.113Z,5.43
2024-02-06T19:15:18.426Z,4.53
2024-02-06T19:17:49.895Z,4.53
2024-02-06T19:20:17.937Z,4.13
2024-02-06T19:22:45.640Z,4.37
2024-02-06T19:25:15.668Z,4.47
2024-02-06T19:27:43.840Z,4.80
2024-02-06T19:30:12.116Z,4.40
2024-02-06T19:32:39.858Z,4.53
2024-02-06T19:35:09.805Z,5.70
2024-02-06T19:37:38.367Z,4.23
2024-02-06T19:40:06.937Z,4.87
2024-02-06T19:42:34.554Z,4.87
2024-02-06T19:45:02.688Z,4.60
2024-02-06T19:47:30.297Z,6.07
2024-02-06T19:49:58.150Z,6.40
2024-02-06T19:52:28.482Z,5.43
2024-02-06T19:54:56.190Z,5.27
2024-02-06T19:57:25.172Z,5.23
2024-02-06T19:59:52.807Z,5.03
2024-02-06T20:02:20.856Z,5.03
2024-02-06T20:04:48.633Z,5.13
2024-02-06T20:07:16.754Z,5.17
2024-02-06T20:09:45.906Z,5.23
2024-02-06T20:12:13.562Z,4.83
2024-02-06T20:14:41.154Z,5.37
2024-02-06T20:17:09.409Z,5.10
2024-02-06T20:19:37.197Z,5.27
2024-02-06T20:22:05.206Z,4.90
2024-02-06T20:24:33.970Z,5.43
2024-02-06T20:27:04.244Z,5.13
2024-02-06T20:29:35.279Z,5.53
2024-02-06T20:32:05.150Z,5.53
2024-02-06T20:34:33.237Z,5.70
2024-02-06T20:37:02.015Z,4.93
2024-02-06T20:39:29.927Z,5.10
2024-02-06T20:41:58.255Z,4.57
2024-02-06T20:44:27.893Z,4.67
2024-02-06T20:46:55.605Z,5.20
2024-02-06T20:49:23.917Z,4.97
2024-02-06T20:51:52.750Z,5.03
2024-02-06T20:54:20.389Z,4.53
2024-02-06T20:56:48.322Z,4.73
2024-02-06T20:59:15.954Z,4.60
2024-02-06T21:01:45.007Z,6.07
2024-02-06T21:04:12.808Z,6.23
2024-02-06T21:06:40.454Z,6.70
2024-02-06T21:09:08.707Z,5.37
2024-02-06T21:11:36.440Z,5.07
2024-02-06T21:14:04.961Z,4.80
2024-02-06T21:16:32.563Z,4.50
2024-02-06T21:19:02.016Z,3.90
2024-02-06T21:21:30.034Z,4.17
2024-02-06T21:23:57.736Z,4.77
2024-02-06T21:26:25.452Z,5.00
2024-02-06T21:28:53.146Z,5.57
2024-02-06T21:31:20.801Z,5.63
2024-02-06T21:33:48.830Z,5.27
2024-02-06T21:36:18.629Z,5.00
2024-02-06T21:38:46.270Z,4.33
2024-02-06T21:41:14.013Z,4.27
2024-02-06T21:43:44.247Z,4.80
2024-02-06T21:46:12.780Z,4.50
2024-02-06T21:48:40.527Z,4.37
2024-02-06T21:51:08.217Z,4.87
2024-02-06T21:53:37.289Z,5.13
2024-02-06T21:56:15.119Z,4.50
2024-02-06T21:58:47.122Z,5.37
2024-02-06T22:01:14.996Z,4.57
2024-02-06T22:03:42.947Z,4.70
2024-02-06T22:06:15.522Z,5.20
2024-02-06T22:08:45.931Z,4.70
2024-02-06T22:11:13.854Z,4.90
2024-02-06T22:13:41.833Z,4.70
2024-02-06T22:16:09.860Z,5.37
2024-02-06T22:18:37.686Z,4.90
2024-02-06T22:21:06.274Z,5.00
2024-02-06T22:23:34.443Z,5.20
2024-02-06T22:26:03.559Z,4.93
2024-02-06T22:28:31.688Z,4.90
2024-02-06T22:30:59.378Z,4.50
2024-02-06T22:33:27.216Z,4.40
2024-02-06T22:35:55.227Z,4.40
2024-02-06T22:38:23.352Z,4.40
2024-02-06T22:40:51.106Z,4.10
2024-02-06T22:43:20.105Z,4.17
2024-02-06T22:45:47.762Z,4.70
2024-02-06T22:48:15.366Z,5.07
2024-02-06T22:50:43.104Z,4.50
2024-02-06T22:53:10.894Z,4.03
2024-02-06T22:55:38.610Z,4.47
2024-02-06T22:58:06.684Z,5.50
2024-02-06T23:00:37.655Z,5.17
2024-02-06T23:03:05.681Z,5.53
2024-02-06T23:05:33.339Z,5.00
2024-02-06T23:08:01.076Z,5.27
2024-02-06T23:10:28.663Z,4.43
2024-02-06T23:12:56.483Z,4.77
2024-02-06T23:15:24.132Z,4.70
2024-02-06T23:17:53.376Z,5.20
2024-02-06T23:20:21.193Z,4.33
2024-02-06T23:22:48.885Z,4.53
2024-02-06T23:25:16.655Z,5.00
2024-02-06T23:27:45.503Z,4.20
2024-02-06T23:30:14.743Z,4.93
2024-02-06T23:32:42.947Z,5.00
2024-02-06T23:35:11.960Z,4.80
2024-02-06T23:37:39.588Z,5.27
2024-02-06T23:40:10.611Z,5.03
2024-02-06T23:42:38.392Z,5.33
2024-02-06T23:45:06.836Z,5.30
2024-02-06T23:47:34.670Z,4.90
2024-02-06T23:50:02.555Z,5.80
2024-02-06T23:52:32.009Z,5.47
2024-02-06T23:55:00.026Z,5.37
2024-02-06T23:57:27.551Z,5.13
2024-02-06T23:59:55.117Z,5.87
